Latest Weather Observations for Smithton

IDT60801

Issued at 9:35 am EDT Saturday 1 November 2014 (issued every 30 minutes, with the page automatically refreshed every 10 minutes)

About weather observations | Map of weather stations | Latest weather observations for TAS | Other Formats
Station Details ID: 091292 Name: SMITHTON AERODROME Lat: -40.83 Lon: 145.08 Height: 7.5 m
Data from the previous 72 hours. | See also: Recent months at Smithton
Date/Time
EDT
Temp
°C
App
Temp
°C
Dew
Point
Rel
Hum
%
Delta-T
°C
Wind Press
QNH
hPa
Press
MSL
hPa
Rain
since 9 am
mm
Dir
 
Spd
km/h
Gust
km/h
Spd
kts
Gust
kts
01/09:30am 14.1 6.3 8.3 68 2.9 W 39 52 21 28 998.1 - 0.0
01/09:06am 12.8 5.4 6.8 67 2.9 W 35 54 19 29 997.8 - 0.0
01/09:00am 13.5 7.1 8.4 71 2.6 W 32 43 17 23 997.8 997.8 6.2
01/08:30am 12.6 6.7 8.9 78 1.9 WSW 30 41 16 22 997.9 - 6.2
01/08:00am 11.9 6.3 8.6 80 1.6 WSW 28 43 15 23 997.5 - 6.0
01/07:30am 11.0 5.8 8.9 87 1.0 WSW 26 32 14 17 997.1 - 6.0
01/07:00am 10.9 6.6 9.2 89 0.8 WSW 22 32 12 17 996.9 - 6.0
01/06:30am 11.2 5.9 9.8 91 0.7 WSW 28 39 15 21 996.0 - 6.0
01/06:00am 11.5 5.5 10.2 92 0.7 WSW 32 44 17 24 995.7 995.7 6.0
01/05:30am 11.9 7.2 10.8 93 0.6 W 26 41 14 22 995.5 - 6.0
01/05:00am 12.3 7.9 11.8 97 0.3 W 26 44 14 24 995.1 - 6.0
01/04:30am 12.2 9.2 11.9 98 0.2 WNW 19 24 10 13 994.8 - 5.6
01/04:00am 12.1 9.8 11.9 99 0.1 W 15 22 8 12 994.6 - 5.6
01/03:30am 12.0 10.8 11.7 98 0.2 W 9 11 5 6 994.6 - 4.6
01/03:00am 12.4 11.3 11.8 96 0.3 W 9 15 5 8 994.9 994.9 2.6
01/02:30am 13.1 10.3 12.6 97 0.3 WSW 19 24 10 13 995.4 - 2.0
01/02:00am 13.5 11.3 13.3 99 0.1 WNW 17 20 9 11 996.6 - 1.0
01/01:30am 13.2 11.7 13.0 99 0.1 NW 13 17 7 9 996.9 - 0.4
01/01:00am 12.7 13.0 12.2 97 0.3 W 2 7 1 4 995.7 - 0.4
01/12:30am 12.9 11.6 12.6 98 0.2 WNW 11 13 6 7 996.5 - 0.4
01/12:00am 12.7 11.3 12.1 96 0.3 NW 11 19 6 10 996.0 996.0 0.4
 
Date/Time
EDT
Temp
°C
App
Temp
°C
Dew
Point
Rel
Hum
%
Delta-T
°C
Wind Press
QNH
hPa
Press
MSL
hPa
Rain
since 9 am
mm
Dir
 
Spd
km/h
Gust
km/h
Spd
kts
Gust
kts
31/11:30pm 13.3 12.3 12.2 93 0.6 E 9 13 5 7 995.8 - 0.4
31/11:00pm 13.4 12.9 12.1 92 0.7 E 6 9 3 5 996.8 - 0.4
31/10:30pm 13.6 13.1 12.2 91 0.8 E 6 9 3 5 996.8 - 0.4
31/10:00pm 13.8 12.4 12.2 90 0.9 E 11 15 6 8 996.8 - 0.4
31/09:30pm 14.1 11.6 12.3 89 1.0 E 17 26 9 14 996.9 - 0.4
31/09:00pm 14.3 10.5 12.5 89 1.0 E 24 32 13 17 996.8 996.8 0.4
31/08:30pm 14.5 10.3 12.4 87 1.1 E 26 35 14 19 997.3 - 0.4
31/08:00pm 14.5 10.3 12.4 87 1.1 ENE 26 35 14 19 997.6 - 0.4
31/07:30pm 14.6 9.3 12.5 87 1.1 E 32 41 17 22 997.5 - 0.4
31/07:00pm 14.6 10.1 12.6 88 1.1 ENE 28 35 15 19 998.0 - 0.4
31/06:30pm 14.8 9.9 12.7 87 1.2 E 30 37 16 20 998.5 - 0.4
31/06:00pm 15.7 10.8 12.6 82 1.7 E 30 39 16 21 999.0 999.0 0.4
31/05:30pm 16.3 11.4 12.5 78 2.1 ENE 30 39 16 21 999.3 - 0.4
31/05:00pm 15.4 10.8 12.3 82 1.7 ENE 28 35 15 19 999.9 - 0.4
31/04:30pm 15.9 12.1 12.5 80 1.9 ENE 24 32 13 17 1000.2 - 0.4
31/04:00pm 15.7 12.0 12.6 82 1.7 E 24 33 13 18 1001.0 - 0.4
31/03:30pm 15.0 11.2 12.3 84 1.5 ENE 24 30 13 16 1002.0 - 0.4
31/03:00pm 15.2 12.4 12.5 84 1.5 ENE 19 28 10 15 1002.6 1002.6 0.4
31/02:30pm 15.3 11.2 12.6 84 1.5 ENE 26 33 14 18 1003.0 - 0.4
31/02:00pm 15.6 11.1 12.7 83 1.6 NE 28 35 15 19 1003.7 - 0.4
31/01:30pm 15.3 11.7 13.1 87 1.2 NE 24 35 13 19 1004.2 - 0.4
31/01:00pm 15.1 11.1 13.0 87 1.2 NNE 26 33 14 18 1004.3 - 0.4
31/12:30pm 15.8 12.9 14.0 89 1.0 NNE 22 30 12 16 1004.9 - 0.4
31/12:00pm 14.4 11.0 12.6 89 1.0 NNE 22 28 12 15 1005.4 1005.4 0.4
31/11:30am 14.0 11.0 12.7 92 0.7 N 20 28 11 15 1006.1 - 0.4
31/11:00am 14.1 10.8 12.8 92 0.7 NNE 22 26 12 14 1006.2 - 0.4
31/10:30am 13.7 10.4 12.8 94 0.5 N 22 30 12 16 1007.1 - 0.4
31/10:00am 13.7 11.9 13.2 97 0.3 N 15 20 8 11 1007.3 - 0.4
31/09:30am 12.6 10.8 12.1 97 0.3 N 13 20 7 11 1007.5 - 0.2
31/09:00am 12.2 9.8 11.4 95 0.4 N 15 20 8 11 1007.7 1007.7 2.0
31/08:30am 12.6 10.6 11.5 93 0.6 N 13 17 7 9 1008.0 - 1.4
31/08:00am 12.0 10.3 11.1 94 0.5 N 11 17 6 9 1007.8 - 1.2
31/07:30am 12.2 10.0 10.8 91 0.7 N 13 17 7 9 1008.2 - 0.8
31/07:00am 11.0 11.2 10.4 96 0.3 CALM 0 6 0 3 1008.6 - 0.6
31/06:30am 10.6 9.9 10.1 97 0.3 NW 4 6 2 3 1008.0 - 0.6
31/06:00am 10.8 9.4 9.7 93 0.6 NW 7 9 4 5 1008.4 1008.4 0.6
31/05:30am 10.8 9.1 9.9 94 0.5 NW 9 11 5 6 1008.4 - 0.6
31/05:00am 10.8 8.7 9.9 94 0.5 NW 11 11 6 6 1008.7 - 0.6
31/04:30am 10.8 9.3 10.5 98 0.2 W 9 11 5 6 1009.0 - 0.6
31/04:00am 10.6 10.4 10.4 99 0.1 W 2 9 1 5 1009.1 - 0.6
31/03:30am 10.6 10.8 10.4 99 0.1 CALM 0 0 0 0 1009.7 - 0.6
31/03:00am 10.7 10.5 10.5 99 0.1 W 2 6 1 3 1009.7 1009.7 0.6
31/02:30am 10.2 8.9 10.0 99 0.1 W 7 9 4 5 1009.9 - 0.6
31/02:00am 10.6 8.6 10.3 98 0.2 W 11 13 6 7 1010.4 - 0.6
31/01:30am 11.3 8.4 11.1 99 0.1 W 17 26 9 14 1011.1 - 0.6
31/01:00am 10.5 9.3 10.2 98 0.2 W 7 9 4 5 1011.2 - 0.4
31/12:30am 10.5 9.3 10.2 98 0.2 W 7 9 4 5 1011.6 - 0.2
31/12:00am 11.3 9.5 11.0 98 0.2 W 11 15 6 8 1011.7 1011.7 0.2
 
Date/Time
EDT
Temp
°C
App
Temp
°C
Dew
Point
Rel
Hum
%
Delta-T
°C
Wind Press
QNH
hPa
Press
MSL
hPa
Rain
since 9 am
mm
Dir
 
Spd
km/h
Gust
km/h
Spd
kts
Gust
kts
30/11:30pm 11.3 10.3 11.0 98 0.2 WNW 7 11 4 6 1011.8 - 0.2
30/11:00pm 11.0 9.2 10.8 99 0.1 WNW 11 11 6 6 1012.0 - 0.2
30/10:30pm 10.2 8.5 9.9 98 0.2 WNW 9 11 5 6 1012.0 - 0.2
30/10:00pm 10.9 10.3 10.3 96 0.3 WNW 4 6 2 3 1012.2 - 0.2
30/09:30pm 10.9 9.8 10.1 95 0.4 WNW 6 7 3 4 1012.3 - 0.2
30/09:00pm 10.7 9.4 9.9 95 0.4 WNW 7 9 4 5 1012.1 1012.1 0.2
30/08:30pm 10.5 8.7 9.3 92 0.6 W 9 13 5 7 1011.9 - 0.2
30/08:00pm 11.9 9.5 10.1 89 0.9 W 13 15 7 8 1011.5 - 0.2
30/07:30pm 12.4 9.7 10.5 88 1.0 WSW 15 20 8 11 1011.2 - 0.2
30/07:00pm 12.7 9.1 10.4 86 1.2 W 20 28 11 15 1011.5 - 0.2
30/06:30pm 13.5 10.0 10.9 84 1.4 W 20 28 11 15 1011.2 - 0.2
30/06:00pm 14.0 9.3 10.6 80 1.8 W 26 35 14 19 1011.2 1011.2 0.2
30/05:30pm 14.7 9.5 10.3 75 2.3 W 28 35 15 19 1011.1 - 0.2
30/05:00pm 15.1 10.5 10.9 76 2.2 W 26 37 14 20 1011.3 - 0.2
30/04:30pm 15.3 10.5 10.3 72 2.6 W 26 35 14 19 1011.1 - 0.2
30/04:00pm 15.4 10.4 11.0 75 2.3 W 28 37 15 20 1011.2 - 0.2
30/03:54pm 15.3 9.2 10.5 73 2.5 W 33 52 18 28 1011.2 - 0.2
30/03:30pm 15.7 10.7 11.1 74 2.5 W 28 39 15 21 1011.2 - 0.2
30/03:00pm 14.8 9.3 10.6 76 2.2 WSW 30 48 16 26 1011.3 1011.3 0.2
30/02:30pm 16.7 11.1 10.1 65 3.5 W 30 43 16 23 1011.1 - 0.2
30/02:00pm 16.7 11.2 10.5 67 3.3 W 30 41 16 22 1011.3 - 0.2
30/01:30pm 15.9 10.2 9.8 67 3.2 W 30 43 16 23 1011.3 - 0.2
30/01:00pm 16.0 9.9 9.9 67 3.2 W 32 41 17 22 1011.2 - 0.2
30/12:30pm 15.9 10.4 10.7 71 2.8 W 30 41 16 22 1011.4 - 0.2
30/12:00pm 15.6 9.4 9.5 67 3.2 W 32 46 17 25 1011.7 1011.7 0.2
30/11:30am 15.3 9.7 10.3 72 2.6 W 30 43 16 23 1011.6 - 0.2
30/11:00am 15.4 10.7 12.0 80 1.8 W 28 39 15 21 1011.8 - 0.2
30/10:30am 14.1 8.4 11.3 83 1.5 W 32 41 17 22 1012.0 - 0.2
30/10:00am 13.9 10.3 11.8 87 1.1 W 22 30 12 16 1012.0 - 0.2
30/09:30am 12.8 8.5 11.9 94 0.5 W 26 37 14 20 1012.1 - 0.2
30/09:00am 12.6 9.0 11.7 94 0.5 W 22 30 12 16 1012.0 1012.0 3.0
30/08:30am 13.1 9.7 11.3 89 1.0 W 20 28 11 15 1011.9 - 2.8
30/08:00am 12.7 9.5 11.3 91 0.7 WSW 19 28 10 15 1011.8 - 2.8
30/07:30am 11.5 8.5 10.7 95 0.4 WSW 17 26 9 14 1011.5 - 2.8
30/07:00am 11.1 9.3 10.9 99 0.1 WSW 11 15 6 8 1011.5 - 2.8
30/06:30am 10.8 9.7 10.5 98 0.2 WNW 7 11 4 6 1011.2 - 2.2
30/06:00am 10.8 8.9 10.5 98 0.2 WNW 11 15 6 8 1011.1 1011.1 2.2
30/05:30am 10.5 8.1 10.2 98 0.2 WNW 13 15 7 8 1011.1 - 2.2
30/05:00am 10.6 8.9 10.0 96 0.3 W 9 11 5 6 1010.9 - 2.2
30/04:30am 10.6 8.6 10.1 97 0.3 WNW 11 15 6 8 1010.9 - 2.0
30/04:00am 9.9 8.4 9.3 96 0.3 W 7 11 4 6 1011.1 - 2.0
30/03:30am 10.1 8.6 9.2 94 0.4 W 7 9 4 5 1011.4 - 2.0
30/03:00am 10.5 8.0 9.6 94 0.5 W 13 15 7 8 1011.6 1011.6 2.0
30/02:30am 10.8 8.6 9.4 91 0.7 WSW 11 17 6 9 1011.6 - 2.0
30/02:00am 11.2 7.8 9.1 87 1.0 W 17 22 9 12 1011.7 - 2.0
30/01:30am 11.1 8.1 9.2 88 0.9 W 15 19 8 10 1011.7 - 2.0
30/01:00am 11.3 7.9 9.2 87 1.0 W 17 22 9 12 1012.0 - 2.0
30/12:30am 11.3 8.1 10.0 92 0.7 W 17 20 9 11 1012.3 - 2.0
30/12:00am 11.5 8.4 10.4 93 0.6 W 17 26 9 14 1012.3 1012.3 2.0
 
Date/Time
EDT
Temp
°C
App
Temp
°C
Dew
Point
Rel
Hum
%
Delta-T
°C
Wind Press
QNH
hPa
Press
MSL
hPa
Rain
since 9 am
mm
Dir
 
Spd
km/h
Gust
km/h
Spd
kts
Gust
kts
29/11:30pm 11.5 9.7 11.0 97 0.3 W 11 15 6 8 1012.6 - 2.0
29/11:00pm 11.3 9.1 10.8 97 0.3 WSW 13 17 7 9 1012.8 - 2.0
29/10:30pm 11.4 8.4 10.8 96 0.3 WSW 17 26 9 14 1012.7 - 2.0
29/10:00pm 12.0 8.7 11.7 98 0.2 WSW 20 33 11 18 1012.8 - 1.8
29/09:30pm 12.1 9.8 11.8 98 0.2 W 15 20 8 11 1012.7 - 1.4
29/09:00pm 12.1 9.3 11.5 96 0.3 W 17 22 9 12 1012.6 1012.6 1.0
29/08:30pm 11.8 8.3 10.9 94 0.5 W 20 28 11 15 1012.6 - 1.0
29/08:00pm 12.3 9.2 11.7 96 0.3 WSW 19 28 10 15 1012.6 - 0.6
29/07:47pm 12.7 7.8 11.3 91 0.7 W 28 46 15 25 1012.5 - 0.2
29/07:30pm 13.3 8.7 11.0 86 1.2 W 26 35 14 19 1012.5 - 0.2
29/07:00pm 13.5 8.1 10.9 84 1.4 W 30 43 16 23 1012.4 - 0.2
29/06:30pm 13.6 8.6 10.8 83 1.5 W 28 41 15 22 1012.4 - 0.2
29/06:00pm 13.7 8.0 11.0 84 1.4 W 32 48 17 26 1012.6 1012.6 0.2
29/05:52pm 13.7 8.4 11.4 86 1.2 W 30 48 16 26 1012.6 - 0.2
29/05:30pm 13.8 9.3 12.7 93 0.6 W 28 39 15 21 1012.8 - 0.2
29/05:00pm 13.6 7.2 10.8 83 1.5 W 35 46 19 25 1012.8 - 0.0
29/04:30pm 15.0 8.5 8.9 67 3.1 W 33 46 18 25 1012.8 - 0.0
29/04:00pm 16.1 10.4 11.1 72 2.7 WNW 32 43 17 23 1013.0 - 0.0
29/03:38pm 15.4 10.3 10.6 73 2.5 W 28 46 15 25 1013.3 - 0.0
29/03:30pm 14.9 9.3 10.1 73 2.5 W 30 39 16 21 1013.4 - 0.0
29/03:00pm 15.0 8.1 10.4 74 2.4 W 37 52 20 28 1013.4 1013.4 0.0
29/02:30pm 14.6 9.4 11.7 83 1.6 WNW 30 48 16 26 1013.7 - 0.0
29/02:27pm 14.2 9.0 11.7 85 1.3 WNW 30 48 16 26 1013.7 - 0.0
29/02:00pm 15.4 9.2 10.0 70 2.8 W 33 44 18 24 1013.8 - 0.0
29/01:30pm 15.1 8.9 9.5 69 2.9 W 32 39 17 21 1013.8 - 0.0
29/01:00pm 15.3 10.0 9.9 70 2.8 W 28 39 15 21 1013.7 - 0.0
29/12:30pm 14.8 10.0 10.4 75 2.3 W 26 35 14 19 1014.2 - 0.0
29/12:12pm 13.8 8.6 10.4 80 1.8 W 28 46 15 25 1014.3 - 0.0
29/12:00pm 13.2 8.7 10.2 82 1.6 WSW 24 32 13 17 1014.3 1014.3 0.0
29/11:30am 15.0 9.2 9.4 69 2.9 WNW 30 41 16 22 1014.3 - 0.0
29/11:13am 14.2 8.8 9.4 73 2.5 W 28 48 15 26 1014.3 - 0.0
29/11:00am 14.5 9.5 9.7 73 2.5 W 26 41 14 22 1014.4 - 0.0
29/10:30am 13.3 8.6 10.7 84 1.4 WNW 26 32 14 17 1014.6 - 0.0
29/10:00am 12.8 8.3 8.7 76 2.0 W 22 32 12 17 1014.7 - 0.0

Other Formats:

Comma delimited format used in spreadsheet applications
http://www.bom.gov.au/fwo/IDT60801/IDT60801.94953.axf

JavaScript Object Notation format (JSON) in row-major order
http://www.bom.gov.au/fwo/IDT60801/IDT60801.94953.json